Time;durP1;ratioP1;P1;durP2;ratioP2;P2;SDS_P1;SDS_P2;PMS_P1;PMS_P2;Temp;Humidity;BMP_temperature;BMP_pressure;BME280_temperature;BME280_humidity;BME280_pressure;Samples;Min_cycle;Max_cycle;Signal;HPM_P1;HPM_P2
2022/04/29 00:00:40;;;;;;;0.40;0.20;;;11.20;99.90;;;;;;5010764;28;20471;-69
2022/04/29 00:03:07;;;;;;;0.40;0.40;;;11.20;99.90;;;;;;5011386;28;20385;-70
2022/04/29 00:05:34;;;;;;;0.40;0.20;;;11.20;99.90;;;;;;5008866;28;20475;-69
2022/04/29 00:08:05;;;;;;;0.90;0.90;;;11.20;99.90;;;;;;5010700;28;20421;-69
2022/04/29 00:10:31;;;;;;;0.40;0.23;;;11.20;99.90;;;;;;5010845;28;20881;-70
2022/04/29 00:12:59;;;;;;;0.40;0.30;;;11.10;99.90;;;;;;5010886;28;20384;-69
2022/04/29 00:15:25;;;;;;;0.40;0.20;;;11.00;99.90;;;;;;5010792;28;20397;-69
2022/04/29 00:17:51;;;;;;;0.60;0.60;;;11.10;99.90;;;;;;5010088;28;20388;-70
2022/04/29 00:20:17;;;;;;;0.40;0.20;;;11.10;99.90;;;;;;5010500;28;20397;-69
2022/04/29 00:22:44;;;;;;;0.47;0.47;;;11.00;99.90;;;;;;5009275;28;20397;-71
2022/04/29 00:25:10;;;;;;;0.40;0.20;;;11.00;99.90;;;;;;5011019;28;20395;-69
2022/04/29 00:27:36;;;;;;;0.60;0.60;;;10.80;99.90;;;;;;5011074;28;20884;-69
2022/04/29 00:30:04;;;;;;;0.40;0.20;;;10.70;99.90;;;;;;5009929;28;20444;-71
2022/04/29 00:32:30;;;;;;;0.40;0.20;;;10.70;99.90;;;;;;5024340;28;20485;-69
2022/04/29 00:34:56;;;;;;;0.40;0.20;;;10.80;99.90;;;;;;5030084;28;20478;-69
2022/04/29 00:37:21;;;;;;;0.50;0.40;;;10.70;99.90;;;;;;5031906;28;20395;-69
2022/04/29 00:39:47;;;;;;;0.40;0.40;;;10.70;99.90;;;;;;5033997;28;20472;-69
2022/04/29 00:42:15;;;;;;;0.40;0.20;;;10.70;99.90;;;;;;5016528;28;20873;-70
2022/04/29 00:44:42;;;;;;;0.40;0.20;;;10.60;99.90;;;;;;5029947;28;20401;-69
2022/04/29 00:47:11;;;;;;;0.40;0.20;;;10.70;99.90;;;;;;5013827;28;20396;-69
2022/04/29 00:49:37;;;;;;;0.40;0.30;;;10.80;99.90;;;;;;5014448;28;20547;-69
2022/04/29 00:52:07;;;;;;;0.40;0.30;;;10.90;99.90;;;;;;5013259;28;20400;-72
2022/04/29 00:54:36;;;;;;;0.40;0.25;;;10.90;99.90;;;;;;5014119;28;20742;-69
2022/04/29 00:57:04;;;;;;;0.40;0.20;;;11.00;99.90;;;;;;5014564;28;20388;-69
2022/04/29 01:00:04;;;;;;;0.40;0.30;;;10.90;99.90;;;;;;5013707;28;20408;-69
2022/04/29 01:02:31;;;;;;;0.40;0.30;;;10.90;99.90;;;;;;5005797;28;20700;-69
2022/04/29 01:05:05;;;;;;;0.40;0.30;;;10.90;99.90;;;;;;5014023;28;20471;-69
2022/04/29 01:07:32;;;;;;;1.00;1.00;;;10.90;99.90;;;;;;5013598;28;20397;-69
2022/04/29 01:09:58;;;;;;;0.70;0.70;;;10.70;99.90;;;;;;5014087;28;20877;-69
2022/04/29 01:12:26;;;;;;;0.40;0.30;;;10.70;99.90;;;;;;5012853;28;20420;-69
2022/04/29 01:14:57;;;;;;;0.40;0.40;;;10.70;99.90;;;;;;5013960;28;20447;-69
2022/04/29 01:17:23;;;;;;;0.50;0.50;;;10.70;99.90;;;;;;5011835;28;20488;-69
2022/04/29 01:19:49;;;;;;;0.40;0.30;;;10.70;99.90;;;;;;5013642;28;20522;-69
2022/04/29 01:22:15;;;;;;;0.50;0.50;;;10.70;99.90;;;;;;5009040;28;20843;-69
2022/04/29 01:24:41;;;;;;;0.40;0.30;;;10.60;99.90;;;;;;4993405;28;20417;-69
2022/04/29 01:27:11;;;;;;;0.55;0.55;;;10.60;99.90;;;;;;5009463;28;20469;-68
2022/04/29 01:29:40;;;;;;;0.40;0.40;;;10.50;99.90;;;;;;4993000;28;20414;-69
2022/04/29 01:32:09;;;;;;;0.40;0.20;;;10.50;99.90;;;;;;5021369;28;20403;-69
2022/04/29 01:34:36;;;;;;;0.40;0.20;;;10.50;99.90;;;;;;5032617;28;20390;-68
2022/04/29 01:37:03;;;;;;;0.40;0.40;;;10.50;99.90;;;;;;5033047;28;20895;-69
2022/04/29 01:39:28;;;;;;;0.40;0.30;;;10.50;99.90;;;;;;5033189;28;20836;-71
2022/04/29 01:41:54;;;;;;;0.40;0.20;;;10.40;99.90;;;;;;5017039;28;20431;-69
2022/04/29 01:44:20;;;;;;;0.40;0.20;;;10.40;99.90;;;;;;5013373;28;20390;-68
2022/04/29 01:46:47;;;;;;;0.40;0.30;;;10.40;99.90;;;;;;5012390;28;20389;-69
2022/04/29 01:49:15;;;;;;;0.40;0.30;;;10.20;99.90;;;;;;5011333;28;20408;-69
2022/04/29 01:51:41;;;;;;;0.40;0.40;;;10.30;99.90;;;;;;5011960;28;20909;-69
2022/04/29 01:54:10;;;;;;;0.40;0.20;;;10.30;99.90;;;;;;5012065;28;20960;-69
2022/04/29 01:56:38;;;;;;;0.40;0.20;;;10.40;99.90;;;;;;5011892;28;20393;-68
2022/04/29 01:59:04;;;;;;;0.40;0.30;;;10.40;99.90;;;;;;5012500;28;20385;-69
2022/04/29 02:01:30;;;;;;;0.40;0.20;;;10.20;99.90;;;;;;5012927;28;20428;-69
2022/04/29 02:03:58;;;;;;;0.40;0.20;;;10.10;99.90;;;;;;5011994;28;20408;-69
2022/04/29 02:06:24;;;;;;;0.40;0.20;;;10.10;99.90;;;;;;5012732;28;20404;-69
2022/04/29 02:08:49;;;;;;;0.40;0.20;;;10.10;99.90;;;;;;5012042;28;21002;-71
2022/04/29 02:11:17;;;;;;;0.40;0.30;;;10.10;99.90;;;;;;5012691;28;20503;-69
2022/04/29 02:13:45;;;;;;;0.40;0.20;;;10.10;99.90;;;;;;5013018;28;20416;-69
2022/04/29 02:16:11;;;;;;;0.40;0.25;;;10.00;99.90;;;;;;5027321;28;20401;-69
2022/04/29 02:18:37;;;;;;;0.60;0.60;;;10.10;99.90;;;;;;5012790;28;20842;-69
2022/04/29 02:21:02;;;;;;;0.40;0.20;;;10.10;99.90;;;;;;5011711;28;20438;-69
2022/04/29 02:23:29;;;;;;;0.40;0.20;;;10.00;99.90;;;;;;5012763;28;20464;-69
2022/04/29 02:25:57;;;;;;;1.10;1.00;;;10.00;99.90;;;;;;5012891;28;20395;-69
2022/04/29 02:28:23;;;;;;;1.50;0.90;;;10.00;99.90;;;;;;5012158;28;20388;-69
2022/04/29 02:30:48;;;;;;;0.50;0.50;;;10.10;99.90;;;;;;5007685;28;20422;-69
2022/04/29 02:33:14;;;;;;;0.60;0.60;;;10.10;99.90;;;;;;5031263;28;20399;-69
2022/04/29 02:35:39;;;;;;;0.40;0.20;;;10.00;99.90;;;;;;5032185;28;20397;-69
2022/04/29 02:38:05;;;;;;;0.50;0.50;;;10.10;99.90;;;;;;5031976;28;20383;-71
2022/04/29 02:40:31;;;;;;;0.50;0.50;;;10.00;99.90;;;;;;5025368;28;20400;-69
2022/04/29 02:42:57;;;;;;;0.45;0.45;;;10.00;99.90;;;;;;5012402;28;20380;-69
2022/04/29 02:45:22;;;;;;;0.40;0.40;;;10.00;99.90;;;;;;5026675;28;20862;-69
2022/04/29 02:47:48;;;;;;;0.40;0.20;;;10.00;99.90;;;;;;5012047;28;20405;-68
2022/04/29 02:50:14;;;;;;;0.40;0.20;;;10.10;99.90;;;;;;5011659;28;20415;-71
2022/04/29 02:52:39;;;;;;;1.20;1.20;;;10.00;99.90;;;;;;5012022;28;20388;-69
2022/04/29 02:55:06;;;;;;;0.40;0.20;;;9.90;99.90;;;;;;5011808;28;20404;-69
2022/04/29 02:57:31;;;;;;;0.40;0.20;;;9.90;99.90;;;;;;5010867;28;20401;-69
2022/04/29 02:59:57;;;;;;;0.40;0.20;;;10.00;99.90;;;;;;5011864;28;20735;-69
2022/04/29 03:02:23;;;;;;;0.70;0.60;;;9.90;99.90;;;;;;5011169;28;20388;-70
2022/04/29 03:04:48;;;;;;;0.40;0.40;;;9.90;99.90;;;;;;5011935;28;20850;-69
2022/04/29 03:07:14;;;;;;;0.40;0.20;;;9.90;99.90;;;;;;5011582;28;20400;-69
2022/04/29 03:09:40;;;;;;;0.40;0.27;;;9.90;99.90;;;;;;5011256;28;20416;-69
2022/04/29 03:12:09;;;;;;;0.40;0.20;;;10.00;99.90;;;;;;5011579;28;20432;-69
2022/04/29 03:14:34;;;;;;;0.50;0.50;;;10.00;99.90;;;;;;5010992;28;20392;-69
2022/04/29 03:17:00;;;;;;;0.40;0.20;;;9.90;99.90;;;;;;5011864;28;20389;-69
2022/04/29 03:19:26;;;;;;;0.40;0.20;;;9.80;99.90;;;;;;5011624;28;20861;-68
2022/04/29 03:21:51;;;;;;;0.40;0.30;;;9.90;99.90;;;;;;5010404;28;20570;-68
2022/04/29 03:24:18;;;;;;;0.50;0.50;;;9.70;99.90;;;;;;5011699;28;20380;-69
2022/04/29 03:26:44;;;;;;;0.40;0.20;;;9.80;99.90;;;;;;5010766;28;20414;-69
2022/04/29 03:29:10;;;;;;;0.40;0.20;;;9.70;99.90;;;;;;5011156;28;20440;-69
2022/04/29 03:31:36;;;;;;;0.40;0.30;;;9.80;99.90;;;;;;5016926;28;20414;-69
2022/04/29 03:34:01;;;;;;;0.40;0.20;;;9.80;99.90;;;;;;5010920;28;20443;-69
2022/04/29 03:36:27;;;;;;;0.70;0.50;;;9.70;99.90;;;;;;5011248;28;20835;-68
2022/04/29 03:38:53;;;;;;;0.40;0.20;;;9.60;99.90;;;;;;5010454;28;20385;-69
2022/04/29 03:41:19;;;;;;;0.40;0.20;;;9.70;99.90;;;;;;5011472;28;20385;-68
2022/04/29 03:43:47;;;;;;;0.40;0.20;;;9.70;99.90;;;;;;5009783;28;20483;-71
2022/04/29 03:46:13;;;;;;;0.90;0.60;;;9.70;99.90;;;;;;5011480;28;20389;-68
2022/04/29 03:51:22;;;;;;;0.40;0.20;;;9.40;99.90;;;;;;5010724;28;20455;-69
2022/04/29 03:53:48;;;;;;;0.40;0.32;;;9.40;99.90;;;;;;5011321;28;20395;-70
2022/04/29 03:56:17;;;;;;;0.40;0.20;;;9.40;99.90;;;;;;5010280;28;20408;-69
2022/04/29 03:58:42;;;;;;;0.40;0.30;;;9.30;99.90;;;;;;5011064;28;20854;-68
2022/04/29 04:01:08;;;;;;;0.40;0.30;;;9.30;99.90;;;;;;5007948;28;20520;-69
2022/04/29 04:03:34;;;;;;;0.40;0.40;;;9.30;99.90;;;;;;5011422;28;20389;-69
2022/04/29 04:08:43;;;;;;;0.40;0.20;;;9.40;99.90;;;;;;5010826;28;20392;-68
2022/04/29 04:11:09;;;;;;;0.40;0.20;;;9.40;99.90;;;;;;5009987;28;20375;-69
2022/04/29 04:13:35;;;;;;;0.40;0.30;;;9.30;99.90;;;;;;5014285;28;20397;-69
2022/04/29 04:16:00;;;;;;;0.40;0.20;;;9.30;99.90;;;;;;5014309;28;20928;-69
2022/04/29 04:18:26;;;;;;;0.40;0.30;;;9.30;99.90;;;;;;5007610;28;21033;-69
2022/04/29 04:20:51;;;;;;;0.50;0.50;;;9.40;99.90;;;;;;5012717;28;20431;-69
2022/04/29 04:23:17;;;;;;;0.40;0.30;;;9.40;99.90;;;;;;5012220;28;20400;-69
2022/04/29 04:25:43;;;;;;;0.40;0.20;;;9.40;99.90;;;;;;5014005;28;20392;-69
2022/04/29 04:28:13;;;;;;;0.40;0.20;;;9.40;99.90;;;;;;5014593;28;20408;-69
2022/04/29 04:30:39;;;;;;;0.40;0.30;;;9.30;99.90;;;;;;4997958;28;20434;-69
2022/04/29 04:33:05;;;;;;;0.80;0.70;;;9.70;99.90;;;;;;5012372;28;20833;-69
2022/04/29 04:35:30;;;;;;;0.40;0.30;;;9.40;99.90;;;;;;5001685;28;20442;-69
2022/04/29 04:37:56;;;;;;;0.40;0.40;;;9.40;99.90;;;;;;5014183;28;20407;-69
2022/04/29 04:40:22;;;;;;;0.40;0.20;;;9.30;99.90;;;;;;5008727;28;20559;-70
2022/04/29 04:42:48;;;;;;;0.40;0.20;;;9.40;99.90;;;;;;5014148;28;20404;-69
2022/04/29 04:45:14;;;;;;;0.40;0.30;;;9.30;99.90;;;;;;5011957;28;20400;-69
2022/04/29 04:47:41;;;;;;;0.40;0.20;;;9.30;99.90;;;;;;5008675;28;20381;-68
2022/04/29 04:50:07;;;;;;;0.40;0.20;;;9.30;99.90;;;;;;5013760;28;20467;-69
2022/04/29 04:52:33;;;;;;;0.40;0.30;;;9.40;99.90;;;;;;5004133;28;20746;-69
2022/04/29 04:55:02;;;;;;;0.90;0.90;;;9.40;99.90;;;;;;5013598;28;20389;-69
2022/04/29 04:57:28;;;;;;;0.40;0.20;;;9.50;99.90;;;;;;5013511;28;20400;-71
2022/04/29 04:59:54;;;;;;;0.40;0.20;;;9.40;99.90;;;;;;5007362;28;20395;-69
2022/04/29 05:02:19;;;;;;;0.40;0.20;;;9.40;99.90;;;;;;5003390;28;20393;-69
2022/04/29 05:04:45;;;;;;;0.40;0.20;;;9.40;99.90;;;;;;5012839;28;20487;-69
2022/04/29 05:07:10;;;;;;;9.00;1.10;;;9.40;99.90;;;;;;5013524;28;20472;-69
2022/04/29 05:09:36;;;;;;;0.40;0.20;;;9.50;99.90;;;;;;5011331;28;20474;-71
2022/04/29 05:12:02;;;;;;;0.40;0.30;;;9.60;99.90;;;;;;5009188;28;20397;-69
2022/04/29 05:14:28;;;;;;;1.50;0.90;;;9.70;99.90;;;;;;5007123;28;20789;-69
2022/04/29 05:16:54;;;;;;;0.40;0.20;;;9.70;99.90;;;;;;5006034;28;20396;-69
2022/04/29 05:19:19;;;;;;;0.40;0.20;;;9.80;99.90;;;;;;5007355;28;20476;-68
2022/04/29 05:21:46;;;;;;;0.40;0.20;;;9.80;99.90;;;;;;5001742;28;20393;-71
2022/04/29 05:24:12;;;;;;;0.40;0.25;;;9.80;99.90;;;;;;5002048;28;20491;-71
2022/04/29 05:26:37;;;;;;;0.40;0.20;;;9.90;99.90;;;;;;5004131;28;20933;-71
2022/04/29 05:29:03;;;;;;;0.40;0.30;;;9.90;99.90;;;;;;5005793;28;20429;-70
2022/04/29 05:31:30;;;;;;;0.40;0.20;;;9.90;99.90;;;;;;5012752;28;20401;-69
2022/04/29 05:33:56;;;;;;;0.40;0.30;;;9.90;99.90;;;;;;5011101;28;20897;-71
2022/04/29 05:36:22;;;;;;;0.40;0.30;;;9.90;99.90;;;;;;5025054;28;20430;-70
2022/04/29 05:44:16;;;;;;;0.40;0.22;;;10.10;99.90;;;;;;5012468;28;20435;-70
2022/04/29 05:46:42;;;;;;;0.40;0.20;;;10.10;99.90;;;;;;5004589;28;20803;-70
2022/04/29 05:49:07;;;;;;;0.40;0.20;;;10.20;99.90;;;;;;5003944;28;20420;-70
2022/04/29 05:51:33;;;;;;;3.60;0.60;;;10.20;99.90;;;;;;5009676;28;20493;-70
2022/04/29 05:54:00;;;;;;;0.80;0.80;;;10.30;99.90;;;;;;5011766;28;20971;-71
2022/04/29 05:56:29;;;;;;;0.40;0.30;;;10.40;99.90;;;;;;5003086;28;20395;-71
2022/04/29 05:58:55;;;;;;;0.40;0.30;;;10.50;99.90;;;;;;4998500;28;20402;-70
2022/04/29 06:01:21;;;;;;;1.10;0.50;;;10.50;99.90;;;;;;5010006;28;20750;-69
2022/04/29 06:03:47;;;;;;;0.40;0.20;;;10.60;99.90;;;;;;5013000;28;20442;-70
2022/04/29 06:06:13;;;;;;;0.60;0.50;;;10.60;99.90;;;;;;5011308;28;20424;-69
2022/04/29 06:08:39;;;;;;;0.60;0.50;;;10.80;99.90;;;;;;4997255;28;20434;-70
2022/04/29 06:11:04;;;;;;;0.90;0.90;;;11.10;99.90;;;;;;5022994;28;20417;-69
2022/04/29 06:13:30;;;;;;;0.40;0.20;;;11.20;99.90;;;;;;5009903;28;20405;-69
2022/04/29 06:15:56;;;;;;;0.40;0.30;;;11.20;99.90;;;;;;5017146;28;20406;-69
2022/04/29 06:18:21;;;;;;;2.80;1.00;;;11.30;99.90;;;;;;5024602;28;20482;-71
2022/04/29 06:20:47;;;;;;;0.40;0.20;;;11.40;99.90;;;;;;5006123;28;20416;-69
2022/04/29 06:23:13;;;;;;;0.40;0.30;;;11.50;99.90;;;;;;5027674;28;20866;-69
2022/04/29 06:25:39;;;;;;;0.40;0.20;;;11.60;99.90;;;;;;5011698;28;20381;-69
2022/04/29 06:28:05;;;;;;;0.40;0.30;;;11.70;99.90;;;;;;5012958;28;20381;-69
2022/04/29 06:30:30;;;;;;;0.40;0.30;;;11.80;99.20;;;;;;5027502;28;20415;-69
2022/04/29 06:32:56;;;;;;;0.40;0.20;;;11.90;99.90;;;;;;5013059;28;20407;-69
2022/04/29 06:35:22;;;;;;;0.40;0.20;;;12.00;99.90;;;;;;5024045;28;20383;-69
2022/04/29 06:37:47;;;;;;;0.40;0.30;;;12.10;99.90;;;;;;5010992;28;20451;-69
2022/04/29 06:40:13;;;;;;;0.90;0.90;;;12.10;98.30;;;;;;5029964;28;20864;-69
2022/04/29 06:42:49;;;;;;;0.70;0.70;;;12.10;97.60;;;;;;5015174;28;20402;-69
2022/04/29 06:45:15;;;;;;;0.60;0.60;;;12.20;98.60;;;;;;5018037;28;20414;-69
2022/04/29 06:47:40;;;;;;;0.50;0.50;;;12.30;99.90;;;;;;5017899;28;20396;-69
2022/04/29 06:50:07;;;;;;;0.63;0.57;;;12.30;99.90;;;;;;5020909;28;20449;-70
2022/04/29 06:52:34;;;;;;;0.40;0.20;;;12.40;99.90;;;;;;5019433;28;20409;-69
2022/04/29 06:54:59;;;;;;;0.70;0.50;;;12.50;99.50;;;;;;5019897;28;20399;-69
2022/04/29 06:57:25;;;;;;;0.40;0.20;;;12.60;97.00;;;;;;5021206;28;20393;-70
2022/04/29 06:59:51;;;;;;;0.40;0.40;;;12.70;94.20;;;;;;5020077;28;20401;-69
2022/04/29 07:02:17;;;;;;;0.40;0.30;;;12.70;95.50;;;;;;5019682;28;20518;-69
2022/04/29 07:04:43;;;;;;;0.40;0.30;;;12.80;95.50;;;;;;5019093;28;20395;-72
2022/04/29 07:07:12;;;;;;;0.40;0.30;;;12.60;95.20;;;;;;5021237;28;20426;-69
2022/04/29 07:09:41;;;;;;;0.40;0.20;;;12.80;95.10;;;;;;5021764;28;20416;-69
2022/04/29 07:12:08;;;;;;;0.40;0.40;;;12.80;95.20;;;;;;5017080;28;20396;-70
2022/04/29 07:14:34;;;;;;;0.40;0.20;;;12.70;95.70;;;;;;5018057;28;20476;-69
2022/04/29 07:17:00;;;;;;;0.50;0.40;;;12.80;97.60;;;;;;5021558;28;20396;-69
2022/04/29 07:19:26;;;;;;;0.40;0.20;;;12.60;97.10;;;;;;5011197;28;20404;-69
2022/04/29 07:21:52;;;;;;;0.40;0.20;;;12.50;97.50;;;;;;5011133;28;20381;-73
2022/04/29 07:24:18;;;;;;;0.40;0.20;;;12.60;97.00;;;;;;4996145;28;20489;-69
2022/04/29 07:26:44;;;;;;;0.40;0.20;;;12.40;97.30;;;;;;4991998;28;20871;-69
2022/04/29 07:29:10;;;;;;;1.50;1.00;;;12.40;97.40;;;;;;5005250;28;20504;-69
2022/04/29 07:31:36;;;;;;;0.40;0.30;;;12.40;98.00;;;;;;5012885;28;20480;-69
2022/04/29 07:34:02;;;;;;;0.40;0.20;;;12.30;97.80;;;;;;5009039;28;20388;-70
2022/04/29 07:41:56;;;;;;;0.40;0.20;;;12.40;97.90;;;;;;5022710;28;20404;-68
2022/04/29 07:44:22;;;;;;;0.40;0.20;;;12.50;97.40;;;;;;5014055;28;20403;-69
2022/04/29 07:46:49;;;;;;;0.40;0.20;;;12.50;97.10;;;;;;5016860;28;20886;-70
2022/04/29 07:49:15;;;;;;;0.90;0.90;;;12.60;96.80;;;;;;5018666;28;20945;-70
2022/04/29 07:51:42;;;;;;;0.90;0.70;;;12.70;96.70;;;;;;5016364;28;20412;-69
2022/04/29 07:54:08;;;;;;;0.40;0.30;;;12.90;95.80;;;;;;5017421;28;20445;-70
2022/04/29 07:56:34;;;;;;;0.40;0.20;;;12.90;94.90;;;;;;5014824;28;20889;-69
2022/04/29 07:59:00;;;;;;;0.40;0.20;;;12.90;95.10;;;;;;5017246;28;20403;-69
2022/04/29 08:01:26;;;;;;;0.40;0.30;;;13.00;95.10;;;;;;5008949;28;20751;-70
2022/04/29 08:03:53;;;;;;;0.60;0.50;;;13.00;95.10;;;;;;5008381;28;20408;-69
2022/04/29 08:06:19;;;;;;;0.40;0.40;;;13.10;94.10;;;;;;5004047;28;20771;-70
2022/04/29 08:08:46;;;;;;;0.45;0.45;;;13.20;93.40;;;;;;5009742;28;20397;-70
2022/04/29 08:11:12;;;;;;;0.40;0.30;;;13.30;93.50;;;;;;5007310;28;20448;-72
2022/04/29 08:13:37;;;;;;;0.70;0.70;;;13.50;92.30;;;;;;5005428;28;20421;-69
2022/04/29 08:16:04;;;;;;;0.40;0.40;;;13.50;92.20;;;;;;5004054;28;20769;-70
2022/04/29 08:18:30;;;;;;;0.50;0.50;;;13.60;92.40;;;;;;5006721;28;20425;-70
2022/04/29 08:20:57;;;;;;;0.40;0.20;;;13.50;90.80;;;;;;5009631;28;20456;-71
2022/04/29 08:23:23;;;;;;;0.40;0.40;;;13.60;92.30;;;;;;5008840;28;20960;-72
2022/04/29 08:25:48;;;;;;;0.40;0.40;;;13.70;91.40;;;;;;4999896;28;20510;-71
2022/04/29 08:28:15;;;;;;;0.40;0.20;;;13.90;90.90;;;;;;5003278;28;20408;-72
2022/04/29 08:30:41;;;;;;;0.40;0.40;;;13.80;87.90;;;;;;5000740;28;20425;-70
2022/04/29 08:33:12;;;;;;;0.40;0.30;;;13.70;90.20;;;;;;5001639;28;20412;-72
2022/04/29 08:35:39;;;;;;;0.60;0.50;;;13.70;90.30;;;;;;5007156;28;20450;-70
2022/04/29 08:38:10;;;;;;;0.40;0.20;;;13.70;91.20;;;;;;5003045;28;20446;-69
2022/04/29 08:40:43;;;;;;;0.40;0.40;;;13.80;90.60;;;;;;5007953;28;20428;-68
2022/04/29 08:43:14;;;;;;;0.40;0.30;;;13.70;91.40;;;;;;5002935;28;20498;-70
2022/04/29 08:45:42;;;;;;;0.40;0.20;;;13.80;91.10;;;;;;5006643;28;20415;-69
2022/04/29 08:48:08;;;;;;;0.50;0.50;;;13.90;91.20;;;;;;4997443;28;20494;-69
2022/04/29 08:50:34;;;;;;;0.40;0.30;;;14.00;91.30;;;;;;5006354;28;20424;-70
2022/04/29 08:53:00;;;;;;;0.40;0.30;;;14.10;91.70;;;;;;5002431;28;20501;-70
2022/04/29 09:01:01;;;;;;;0.40;0.20;;;14.40;93.50;;;;;;5008664;28;20616;-70
2022/04/29 09:03:27;;;;;;;0.50;0.40;;;14.50;93.70;;;;;;5016474;28;20408;-69
2022/04/29 09:05:53;;;;;;;0.40;0.20;;;14.60;93.70;;;;;;5007545;28;20771;-70
2022/04/29 09:08:22;;;;;;;0.80;0.80;;;14.60;92.50;;;;;;5010321;28;20419;-71
2022/04/29 09:10:58;;;;;;;0.50;0.40;;;14.60;92.40;;;;;;5012808;28;20414;-71
2022/04/29 09:13:29;;;;;;;0.67;0.57;;;14.70;91.70;;;;;;5004553;28;20449;-70
2022/04/29 09:16:01;;;;;;;0.40;0.22;;;14.70;90.70;;;;;;5009452;28;20403;-71
2022/04/29 09:18:47;;;;;;;1.00;0.90;;;14.60;89.50;;;;;;5013425;28;20769;-69
2022/04/29 09:21:15;;;;;;;0.40;0.40;;;14.80;90.10;;;;;;5011651;28;20428;-70
2022/04/29 09:23:57;;;;;;;0.40;0.20;;;14.90;88.90;;;;;;5007576;28;20500;-72
2022/04/29 09:26:27;;;;;;;0.80;0.50;;;15.00;88.70;;;;;;5003338;28;20413;-70
2022/04/29 09:28:55;;;;;;;0.40;0.20;;;15.10;89.90;;;;;;5006910;28;20408;-70
2022/04/29 09:31:21;;;;;;;0.50;0.40;;;15.00;90.40;;;;;;5012368;28;20731;-69
2022/04/29 09:33:55;;;;;;;0.80;0.80;;;15.30;89.50;;;;;;5010905;28;20396;-71
2022/04/29 09:36:26;;;;;;;0.40;0.40;;;15.30;87.80;;;;;;5027504;28;20428;-70
2022/04/29 09:41:52;;;;;;;0.40;0.30;;;15.50;85.30;;;;;;5004618;28;20396;-70
2022/04/29 09:44:31;;;;;;;1.20;1.10;;;15.80;84.20;;;;;;5006733;28;20439;-70
2022/04/29 09:47:19;;;;;;;0.40;0.30;;;15.70;83.00;;;;;;5005503;28;20859;-71
2022/04/29 09:50:04;;;;;;;0.40;0.20;;;16.10;80.90;;;;;;5008193;28;20919;-70
2022/04/29 09:52:30;;;;;;;0.40;0.20;;;16.30;83.20;;;;;;5020081;28;20471;-70
2022/04/29 09:55:18;;;;;;;0.40;0.30;;;16.20;75.40;;;;;;5009135;28;20389;-70
2022/04/29 09:58:01;;;;;;;0.40;0.30;;;16.40;75.90;;;;;;5008719;28;20488;-70
2022/04/29 10:00:27;;;;;;;0.40;0.30;;;16.60;74.80;;;;;;5007223;28;20409;-71
2022/04/29 10:02:53;;;;;;;0.40;0.30;;;16.50;71.90;;;;;;5017712;28;20407;-73
2022/04/29 10:05:19;;;;;;;0.40;0.20;;;16.50;71.20;;;;;;5003383;28;20464;-70
2022/04/29 10:07:46;;;;;;;0.50;0.50;;;16.60;73.50;;;;;;5009458;28;20404;-72
2022/04/29 10:10:14;;;;;;;0.40;0.30;;;16.70;72.60;;;;;;5007420;28;20448;-70
2022/04/29 10:12:47;;;;;;;0.40;0.40;;;16.90;72.40;;;;;;5004482;28;20401;-70
2022/04/29 10:15:16;;;;;;;0.40;0.20;;;17.00;73.10;;;;;;5006050;28;20762;-70
2022/04/29 10:23:15;;;;;;;0.40;0.40;;;17.60;73.20;;;;;;5006118;28;20388;-70
2022/04/29 10:25:44;;;;;;;0.43;0.43;;;17.40;73.80;;;;;;5011777;28;20396;-69
2022/04/29 10:28:15;;;;;;;0.40;0.30;;;17.30;73.50;;;;;;5000534;28;20404;-69
2022/04/29 10:30:41;;;;;;;0.40;0.30;;;17.90;76.20;;;;;;5009972;28;20412;-71
2022/04/29 10:33:12;;;;;;;0.40;0.30;;;18.20;73.00;;;;;;5016068;28;20455;-72
2022/04/29 10:35:45;;;;;;;0.80;0.80;;;18.20;74.10;;;;;;5007183;28;20814;-70
2022/04/29 10:38:36;;;;;;;0.50;0.50;;;18.00;71.70;;;;;;5008570;28;20813;-72
2022/04/29 10:41:19;;;;;;;0.40;0.20;;;18.00;71.00;;;;;;5008374;28;20937;-72
2022/04/29 10:43:46;;;;;;;0.40;0.20;;;17.80;71.70;;;;;;5005693;28;20483;-70
2022/04/29 10:46:21;;;;;;;0.50;0.50;;;18.00;74.50;;;;;;5006257;28;20424;-73
2022/04/29 10:48:48;;;;;;;0.40;0.20;;;18.20;70.50;;;;;;5009707;28;20606;-71
2022/04/29 10:51:27;;;;;;;0.40;0.20;;;18.30;68.30;;;;;;5010841;28;20470;-73
2022/04/29 10:53:57;;;;;;;0.50;0.50;;;18.00;69.00;;;;;;5007310;28;20437;-71
2022/04/29 10:56:32;;;;;;;0.50;0.40;;;18.00;68.10;;;;;;5003216;28;20953;-70
2022/04/29 10:59:06;;;;;;;0.40;0.20;;;18.30;69.40;;;;;;5007731;28;20405;-71
2022/04/29 11:01:33;;;;;;;0.60;0.60;;;18.30;69.60;;;;;;5002122;28;20483;-71
2022/04/29 11:04:31;;;;;;;0.40;0.38;;;18.10;68.70;;;;;;5018058;28;20817;-68
2022/04/29 11:06:57;;;;;;;0.60;0.50;;;18.10;67.80;;;;;;5016372;28;20461;-71
2022/04/29 11:09:49;;;;;;;0.50;0.28;;;18.40;67.60;;;;;;5017043;28;20409;-71
2022/04/29 11:12:36;;;;;;;0.63;0.55;;;17.90;67.30;;;;;;5016076;28;20399;-71
2022/04/29 11:15:21;;;;;;;0.45;0.45;;;18.10;68.00;;;;;;5021538;28;20419;-70
2022/04/29 11:17:47;;;;;;;0.40;0.30;;;17.90;68.30;;;;;;5021141;28;20402;-71
2022/04/29 11:20:21;;;;;;;0.40;0.32;;;18.00;67.40;;;;;;5020764;28;20889;-70
2022/04/29 11:25:54;;;;;;;0.40;0.30;;;18.20;66.20;;;;;;5020276;28;20754;-70
2022/04/29 11:28:20;;;;;;;0.80;0.80;;;18.40;64.40;;;;;;5016217;28;20483;-70
2022/04/29 11:30:47;;;;;;;0.40;0.30;;;18.80;63.80;;;;;;5014082;28;20875;-70
2022/04/29 11:33:13;;;;;;;0.50;0.40;;;18.60;65.10;;;;;;5017808;28;20738;-70
2022/04/29 11:35:39;;;;;;;0.60;0.60;;;18.80;60.10;;;;;;5014788;28;20407;-70
2022/04/29 11:38:08;;;;;;;0.40;0.20;;;18.80;64.80;;;;;;5033119;28;20396;-70
2022/04/29 11:40:38;;;;;;;0.90;0.90;;;19.30;58.80;;;;;;5012152;28;20421;-70
2022/04/29 11:43:08;;;;;;;0.40;0.30;;;19.60;59.10;;;;;;5021031;28;20379;-69
2022/04/29 11:45:34;;;;;;;0.40;0.20;;;19.40;58.90;;;;;;5017067;28;20393;-69
2022/04/29 11:48:06;;;;;;;0.40;0.20;;;19.50;61.90;;;;;;5013637;28;20989;-70
2022/04/29 11:50:34;;;;;;;0.40;0.20;;;19.70;59.30;;;;;;5018550;28;20412;-71
2022/04/29 11:53:07;;;;;;;0.40;0.30;;;19.50;59.50;;;;;;5017691;28;20408;-72
2022/04/29 11:55:33;;;;;;;0.40;0.20;;;19.20;60.90;;;;;;5016662;28;20951;-69
2022/04/29 11:58:00;;;;;;;0.50;0.40;;;19.80;60.50;;;;;;5015806;28;20387;-71
2022/04/29 12:00:27;;;;;;;0.40;0.20;;;19.80;60.00;;;;;;5022086;28;20379;-71
2022/04/29 12:02:54;;;;;;;0.40;0.30;;;19.40;61.40;;;;;;5012803;28;20461;-74
2022/04/29 12:05:24;;;;;;;0.40;0.30;;;18.90;59.00;;;;;;5018399;28;20754;-72
2022/04/29 12:07:50;;;;;;;0.40;0.38;;;18.90;61.70;;;;;;5017593;28;20945;-70
2022/04/29 12:10:23;;;;;;;0.40;0.20;;;19.30;65.40;;;;;;5014995;28;20404;-70
2022/04/29 12:12:53;;;;;;;0.40;0.40;;;19.70;63.90;;;;;;5016394;28;20403;-71
2022/04/29 12:15:20;;;;;;;0.40;0.20;;;20.00;61.70;;;;;;5018221;28;20391;-72
2022/04/29 12:17:50;;;;;;;0.40;0.20;;;19.60;62.00;;;;;;5019343;28;20727;-71
2022/04/29 12:20:18;;;;;;;1.42;1.33;;;19.60;63.90;;;;;;5024103;28;20981;-72
2022/04/29 12:22:44;;;;;;;0.40;0.30;;;19.40;62.40;;;;;;5007791;28;20408;-71
2022/04/29 12:25:26;;;;;;;0.40;0.20;;;19.40;61.40;;;;;;4994512;28;20885;-71
2022/04/29 12:28:14;;;;;;;0.50;0.40;;;19.40;62.50;;;;;;5005026;28;20413;-71
2022/04/29 12:37:04;;;;;;;0.40;0.27;;;19.20;61.40;;;;;;5014244;28;20400;-70
2022/04/29 12:39:36;;;;;;;0.50;0.50;;;19.50;62.00;;;;;;5004796;28;20439;-70
2022/04/29 12:42:21;;;;;;;0.40;0.20;;;19.30;66.10;;;;;;5010279;28;20861;-70
2022/04/29 12:45:14;;;;;;;0.40;0.20;;;19.20;61.40;;;;;;5014393;28;20398;-71
2022/04/29 12:47:54;;;;;;;0.40;0.30;;;20.00;60.70;;;;;;5013477;28;20432;-70
2022/04/29 12:50:24;;;;;;;0.40;0.20;;;20.10;60.20;;;;;;5013800;28;20503;-71
2022/04/29 12:53:02;;;;;;;0.50;0.50;;;19.80;60.10;;;;;;4995739;28;20394;-70
2022/04/29 12:55:35;;;;;;;0.40;0.30;;;20.40;60.10;;;;;;5005877;28;20923;-71
2022/04/29 12:58:24;;;;;;;0.40;0.20;;;19.90;59.50;;;;;;5014234;28;20396;-70
2022/04/29 13:00:56;;;;;;;0.40;0.20;;;20.00;61.00;;;;;;5013794;28;20455;-70
2022/04/29 13:03:27;;;;;;;0.40;0.30;;;19.80;60.20;;;;;;5013333;28;20427;-74
2022/04/29 13:05:54;;;;;;;0.90;0.90;;;19.80;61.00;;;;;;5013884;28;20400;-70
2022/04/29 13:08:20;;;;;;;0.50;0.40;;;19.90;60.00;;;;;;5014071;28;20387;-70
2022/04/29 13:10:51;;;;;;;0.40;0.20;;;20.40;60.00;;;;;;5012940;28;20419;-69
2022/04/29 13:13:18;;;;;;;0.60;0.60;;;20.50;61.00;;;;;;5013764;28;20401;-69
2022/04/29 13:15:44;;;;;;;0.40;0.20;;;20.50;62.60;;;;;;5013297;28;20447;-69
2022/04/29 13:18:13;;;;;;;0.70;0.60;;;20.80;59.30;;;;;;5013600;28;20401;-70
2022/04/29 13:20:39;;;;;;;0.80;0.70;;;21.00;60.40;;;;;;5012094;28;20396;-70
2022/04/29 13:23:06;;;;;;;0.80;0.60;;;21.30;58.50;;;;;;5013392;28;20924;-70
2022/04/29 13:25:36;;;;;;;0.50;0.50;;;21.60;58.40;;;;;;5013648;28;20941;-70
2022/04/29 13:28:02;;;;;;;0.40;0.30;;;22.70;56.60;;;;;;5013258;28;20404;-71
2022/04/29 13:30:29;;;;;;;0.40;0.30;;;21.80;56.70;;;;;;5013213;28;20459;-70
2022/04/29 13:32:55;;;;;;;0.40;0.30;;;21.40;58.00;;;;;;5030093;28;20424;-71